Terminal Aerodrome Forecast
Issued by NWS Louisville, KY

Home | Current Version | Previous Version | Text Only | Print | Product List | Glossary On
Versions: 1 2 3 4 5 6 7 8 9 10 11 12 13 14 15 16 17 18 19 20 21
000
FTUS43 KLMK 191700
TAFLEX
TAF
KLEX 191729Z 1918/2018 09007KT P6SM VCSH BKN012 OVC025
     FM192300 10006KT P6SM BKN035
     FM200600 VRB03KT 5SM BR SCT009 BKN015
     FM200900 VRB03KT 3SM BR BKN009 OVC015
     FM201500 VRB03KT P6SM BKN015=

USA.gov is the U.S. government's official web portal to all federal, state and local government web resources and services.